createdAt,value
2018-12-25T00:00:27.031Z,20.799999999999997
2018-12-25T00:02:26.994Z,20.799999999999997
2018-12-25T00:04:27.068Z,20.200000000000003
2018-12-25T00:06:27.137Z,20.799999999999997
2018-12-25T00:08:27.335Z,20.200000000000003
2018-12-25T00:10:27.399Z,20.799999999999997
2018-12-25T00:12:27.566Z,20.799999999999997
2018-12-25T00:14:27.681Z,20.200000000000003
2018-12-25T00:16:27.754Z,19.700000000000003
2018-12-25T00:18:27.909Z,19.700000000000003
2018-12-25T00:20:27.945Z,19.700000000000003
2018-12-25T00:22:27.857Z,20.799999999999997
2018-12-25T00:24:27.928Z,20.200000000000003
2018-12-25T00:26:27.951Z,20.799999999999997
2018-12-25T00:28:27.990Z,19.700000000000003
2018-12-25T00:30:28.110Z,19.700000000000003
2018-12-25T00:32:28.284Z,19.700000000000003
2018-12-25T00:34:28.219Z,20.200000000000003
2018-12-25T00:36:28.161Z,19.700000000000003
2018-12-25T00:38:28.309Z,20.200000000000003
2018-12-25T00:40:28.422Z,19.700000000000003
2018-12-25T00:42:28.286Z,19.700000000000003
2018-12-25T00:44:28.439Z,19.700000000000003
2018-12-25T00:46:28.532Z,19.700000000000003
2018-12-25T00:48:28.706Z,20.200000000000003
2018-12-25T00:50:28.593Z,20.200000000000003
2018-12-25T00:52:28.616Z,20.799999999999997
2018-12-25T00:54:29.007Z,20.200000000000003
2018-12-25T00:56:29.373Z,19.700000000000003
2018-12-25T00:58:29.135Z,20.799999999999997
2018-12-25T01:00:29.107Z,19.700000000000003
2018-12-25T01:02:29.233Z,20.200000000000003
2018-12-25T01:04:29.290Z,20.200000000000003
2018-12-25T01:06:29.306Z,20.799999999999997
2018-12-25T01:08:29.484Z,20.200000000000003
2018-12-25T01:10:29.660Z,19.700000000000003
2018-12-25T01:12:29.814Z,19.700000000000003
2018-12-25T01:14:29.888Z,19.700000000000003
2018-12-25T01:16:30.068Z,19.700000000000003
2018-12-25T01:18:30.121Z,19.700000000000003
2018-12-25T01:20:30.092Z,19.700000000000003
2018-12-25T01:22:30.304Z,19.700000000000003
2018-12-25T01:24:30.073Z,19.700000000000003
2018-12-25T01:26:30.255Z,19.200000000000003
2018-12-25T01:28:30.268Z,20.200000000000003
2018-12-25T01:30:30.261Z,19.700000000000003
2018-12-25T01:32:30.390Z,20.200000000000003
2018-12-25T01:34:30.376Z,19.700000000000003
2018-12-25T01:36:30.444Z,20.200000000000003
2018-12-25T01:38:30.467Z,20.200000000000003
2018-12-25T01:40:30.576Z,19.700000000000003
2018-12-25T01:42:30.618Z,19.700000000000003
2018-12-25T01:44:30.599Z,19.700000000000003
2018-12-25T01:46:32.459Z,20.799999999999997
2018-12-25T01:48:30.948Z,19.700000000000003
2018-12-25T01:50:30.988Z,19.700000000000003
2018-12-25T01:52:30.987Z,19.700000000000003
2018-12-25T01:54:30.948Z,20.200000000000003
2018-12-25T01:56:31.129Z,19.700000000000003
2018-12-25T01:58:31.246Z,19.700000000000003
2018-12-25T02:00:31.319Z,19.700000000000003
2018-12-25T02:02:31.318Z,19.700000000000003
2018-12-25T02:04:31.455Z,19.700000000000003
2018-12-25T02:06:31.552Z,20.200000000000003
2018-12-25T02:08:31.667Z,19.700000000000003
2018-12-25T02:10:31.733Z,19.700000000000003
2018-12-25T02:12:31.798Z,19.700000000000003
2018-12-25T02:14:32.160Z,19.700000000000003
2018-12-25T02:16:32.406Z,20.200000000000003
2018-12-25T02:18:32.612Z,19.700000000000003
2018-12-25T02:20:32.702Z,19.700000000000003
2018-12-25T02:22:32.597Z,19.700000000000003
2018-12-25T02:24:32.802Z,19.700000000000003
2018-12-25T02:26:32.574Z,19.700000000000003
2018-12-25T02:28:32.594Z,19.700000000000003
2018-12-25T02:30:32.721Z,19.700000000000003
2018-12-25T02:32:32.714Z,19.700000000000003
2018-12-25T02:34:32.659Z,19.200000000000003
2018-12-25T02:36:32.760Z,19.700000000000003
2018-12-25T02:38:32.884Z,19.700000000000003
2018-12-25T02:40:32.941Z,19.200000000000003
2018-12-25T02:42:33.002Z,19.700000000000003
2018-12-25T02:44:33.034Z,19.700000000000003
2018-12-25T02:46:33.129Z,19.700000000000003
2018-12-25T02:48:33.188Z,19.700000000000003
2018-12-25T02:50:33.207Z,19.700000000000003
2018-12-25T02:52:33.292Z,19.700000000000003
2018-12-25T02:54:33.368Z,19.700000000000003
2018-12-25T02:56:33.446Z,19.700000000000003
2018-12-25T02:58:33.502Z,19.700000000000003
2018-12-25T03:00:33.778Z,19.700000000000003
2018-12-25T03:02:33.772Z,19.700000000000003
2018-12-25T03:04:33.857Z,19.700000000000003
2018-12-25T03:06:33.867Z,19.700000000000003
2018-12-25T03:08:33.923Z,19.200000000000003
2018-12-25T03:10:34.097Z,19.700000000000003
2018-12-25T03:12:33.944Z,19.700000000000003
2018-12-25T03:14:34.106Z,19.700000000000003
2018-12-25T03:16:34.195Z,19.700000000000003
2018-12-25T03:18:34.268Z,19.200000000000003
2018-12-25T03:20:34.547Z,19.700000000000003
2018-12-25T03:22:34.692Z,19.700000000000003
2018-12-25T03:24:34.719Z,19.700000000000003
2018-12-25T03:26:34.851Z,19.200000000000003
2018-12-25T03:28:34.792Z,19.200000000000003
2018-12-25T03:30:34.829Z,19.700000000000003
2018-12-25T03:32:34.945Z,19.700000000000003
2018-12-25T03:34:34.948Z,19.700000000000003
2018-12-25T03:36:35.163Z,19.700000000000003
2018-12-25T03:38:35.050Z,19.700000000000003
2018-12-25T03:40:35.081Z,19.200000000000003
2018-12-25T03:42:35.155Z,19.700000000000003
2018-12-25T03:44:35.273Z,19.700000000000003
2018-12-25T03:46:35.149Z,19.700000000000003
2018-12-25T03:48:35.315Z,19.700000000000003
2018-12-25T03:50:37.099Z,19.700000000000003
2018-12-25T03:52:35.385Z,19.700000000000003
2018-12-25T03:54:35.394Z,19.200000000000003
2018-12-25T03:56:35.530Z,19.700000000000003
2018-12-25T03:58:35.582Z,19.700000000000003
2018-12-25T04:00:35.676Z,19.700000000000003
2018-12-25T04:02:36.063Z,19.700000000000003
2018-12-25T04:04:36.074Z,19.700000000000003
2018-12-25T04:06:36.153Z,19.700000000000003
2018-12-25T04:08:36.190Z,19.700000000000003
2018-12-25T04:10:36.273Z,19.700000000000003
2018-12-25T04:12:36.280Z,19.700000000000003
2018-12-25T04:14:36.429Z,19.700000000000003
2018-12-25T04:16:36.455Z,19.200000000000003
2018-12-25T04:18:36.511Z,19.200000000000003
2018-12-25T04:20:36.670Z,19.700000000000003
2018-12-25T04:22:36.890Z,18.6
2018-12-25T04:24:36.941Z,19.700000000000003
2018-12-25T04:26:37.088Z,19.700000000000003
2018-12-25T04:28:37.252Z,19.700000000000003
2018-12-25T04:30:37.737Z,19.200000000000003
2018-12-25T04:32:37.445Z,19.700000000000003
2018-12-25T04:34:37.372Z,19.700000000000003
2018-12-25T04:36:37.472Z,19.700000000000003
2018-12-25T04:38:37.458Z,19.200000000000003
2018-12-25T04:40:37.665Z,19.200000000000003
2018-12-25T04:42:37.644Z,19.700000000000003
2018-12-25T04:44:37.733Z,19.700000000000003
2018-12-25T04:46:37.771Z,19.700000000000003
2018-12-25T04:48:37.718Z,19.200000000000003
2018-12-25T04:50:37.874Z,19.200000000000003
2018-12-25T04:52:37.839Z,19.700000000000003
2018-12-25T04:54:38.061Z,19.700000000000003
2018-12-25T04:56:38.034Z,19.700000000000003
2018-12-25T04:58:38.048Z,19.700000000000003
2018-12-25T05:00:38.107Z,19.700000000000003
2018-12-25T05:02:38.156Z,19.700000000000003
2018-12-25T05:04:38.197Z,19.700000000000003
2018-12-25T05:06:38.285Z,19.700000000000003
2018-12-25T05:08:38.491Z,19.700000000000003
2018-12-25T05:10:38.541Z,19.700000000000003
2018-12-25T05:12:38.526Z,19.700000000000003
2018-12-25T05:14:38.601Z,19.700000000000003
2018-12-25T05:16:38.784Z,19.700000000000003
2018-12-25T05:18:38.829Z,19.700000000000003
2018-12-25T05:20:38.921Z,19.700000000000003
2018-12-25T05:22:39.140Z,20.200000000000003
2018-12-25T05:24:39.395Z,19.700000000000003
2018-12-25T05:26:39.417Z,19.700000000000003
2018-12-25T05:28:39.407Z,19.700000000000003
2018-12-25T05:30:39.582Z,19.700000000000003
2018-12-25T05:32:39.327Z,19.700000000000003
2018-12-25T05:34:39.290Z,19.700000000000003
2018-12-25T05:36:39.470Z,19.700000000000003
2018-12-25T05:38:39.500Z,19.700000000000003
2018-12-25T05:40:39.460Z,19.700000000000003
2018-12-25T05:42:39.627Z,19.200000000000003
2018-12-25T05:44:39.663Z,19.700000000000003
2018-12-25T05:46:39.746Z,19.700000000000003
2018-12-25T05:48:39.881Z,19.700000000000003
2018-12-25T05:50:46.524Z,19.700000000000003
2018-12-25T05:52:39.934Z,19.700000000000003
2018-12-25T05:54:39.954Z,19.700000000000003
2018-12-25T05:56:40.040Z,19.700000000000003
2018-12-25T05:58:40.066Z,19.700000000000003
2018-12-25T06:00:40.126Z,19.700000000000003
2018-12-25T06:02:40.173Z,19.700000000000003
2018-12-25T06:04:40.277Z,19.700000000000003
2018-12-25T06:06:40.498Z,19.700000000000003
2018-12-25T06:08:42.528Z,19.700000000000003
2018-12-25T06:10:40.617Z,19.700000000000003
2018-12-25T06:12:40.688Z,20.200000000000003
2018-12-25T06:14:40.796Z,19.700000000000003
2018-12-25T06:16:40.900Z,20.200000000000003
2018-12-25T06:18:40.903Z,19.700000000000003
2018-12-25T06:20:41.148Z,20.200000000000003
2018-12-25T06:22:41.197Z,19.700000000000003
2018-12-25T06:24:41.281Z,19.700000000000003
2018-12-25T06:26:41.407Z,19.700000000000003
2018-12-25T06:28:41.340Z,19.700000000000003
2018-12-25T06:30:41.409Z,19.700000000000003
2018-12-25T06:32:41.416Z,19.700000000000003
2018-12-25T06:34:41.481Z,19.700000000000003
2018-12-25T06:36:41.600Z,19.700000000000003
2018-12-25T06:38:41.614Z,19.700000000000003
2018-12-25T06:40:41.653Z,19.700000000000003
2018-12-25T06:42:41.710Z,19.700000000000003
2018-12-25T06:44:41.733Z,19.700000000000003
2018-12-25T06:46:41.824Z,20.200000000000003
2018-12-25T06:48:41.842Z,19.700000000000003
2018-12-25T06:50:41.906Z,20.200000000000003
2018-12-25T06:52:42.007Z,20.799999999999997
2018-12-25T06:54:41.935Z,20.200000000000003
2018-12-25T06:56:42.026Z,20.200000000000003
2018-12-25T06:58:42.208Z,20.799999999999997
2018-12-25T07:00:42.165Z,20.200000000000003
2018-12-25T07:02:42.418Z,20.200000000000003
2018-12-25T07:04:42.584Z,19.700000000000003
2018-12-25T07:06:42.732Z,20.200000000000003
2018-12-25T07:08:42.816Z,20.200000000000003
2018-12-25T07:10:42.852Z,19.700000000000003
2018-12-25T07:12:43.068Z,19.700000000000003
2018-12-25T07:14:43.108Z,19.700000000000003
2018-12-25T07:16:43.225Z,20.799999999999997
2018-12-25T07:18:43.116Z,20.799999999999997
2018-12-25T07:20:43.244Z,19.700000000000003
2018-12-25T07:22:43.087Z,19.700000000000003
2018-12-25T07:24:43.258Z,20.200000000000003
2018-12-25T07:26:43.304Z,20.200000000000003
2018-12-25T07:28:43.291Z,20.200000000000003
2018-12-25T07:30:43.413Z,19.700000000000003
2018-12-25T07:32:43.603Z,19.700000000000003
2018-12-25T07:34:43.615Z,20.799999999999997
2018-12-25T07:36:43.633Z,20.200000000000003
2018-12-25T07:38:43.860Z,20.799999999999997
2018-12-25T07:40:43.655Z,20.799999999999997
2018-12-25T07:42:43.778Z,19.700000000000003
2018-12-25T07:44:43.857Z,20.799999999999997
2018-12-25T07:46:43.911Z,20.799999999999997
2018-12-25T07:48:44.080Z,20.799999999999997
2018-12-25T07:50:44.087Z,20.799999999999997
2018-12-25T07:52:44.145Z,20.200000000000003
2018-12-25T07:54:44.232Z,20.799999999999997
2018-12-25T07:56:44.300Z,20.799999999999997
2018-12-25T07:58:44.478Z,20.200000000000003
2018-12-25T08:00:45.102Z,20.799999999999997
2018-12-25T08:02:44.679Z,20.799999999999997
2018-12-25T08:04:44.773Z,20.799999999999997
2018-12-25T08:06:44.856Z,20.200000000000003
2018-12-25T08:08:45.127Z,20.799999999999997
2018-12-25T08:10:45.057Z,20.799999999999997
2018-12-25T08:12:45.196Z,20.799999999999997
2018-12-25T08:14:45.244Z,20.799999999999997
2018-12-25T08:16:45.280Z,20.799999999999997
2018-12-25T08:18:45.460Z,20.799999999999997
2018-12-25T08:20:45.559Z,20.200000000000003
2018-12-25T08:22:45.741Z,20.200000000000003
2018-12-25T08:24:45.821Z,20.200000000000003
2018-12-25T08:26:45.967Z,20.200000000000003
2018-12-25T08:28:46.186Z,20.799999999999997
2018-12-25T08:30:45.879Z,19.700000000000003
2018-12-25T08:32:46.026Z,20.799999999999997
2018-12-25T08:34:46.103Z,19.700000000000003
2018-12-25T08:36:46.366Z,20.200000000000003
2018-12-25T08:38:46.259Z,20.799999999999997
2018-12-25T08:40:46.459Z,20.799999999999997
2018-12-25T08:42:46.284Z,20.799999999999997
2018-12-25T08:44:46.338Z,20.799999999999997
2018-12-25T08:46:46.351Z,20.200000000000003
2018-12-25T08:48:46.455Z,20.799999999999997
2018-12-25T08:50:46.510Z,20.200000000000003
2018-12-25T08:52:46.478Z,20.799999999999997
2018-12-25T08:54:46.680Z,20.799999999999997
2018-12-25T08:56:46.842Z,20.200000000000003
2018-12-25T08:58:46.742Z,20.799999999999997
2018-12-25T09:00:46.704Z,20.799999999999997
2018-12-25T09:02:46.817Z,20.799999999999997
2018-12-25T09:04:46.982Z,20.200000000000003
2018-12-25T09:06:47.022Z,20.799999999999997
2018-12-25T09:08:47.168Z,20.799999999999997
2018-12-25T09:10:47.461Z,20.799999999999997
2018-12-25T09:12:47.480Z,20.200000000000003
2018-12-25T09:14:47.578Z,20.799999999999997
2018-12-25T09:16:47.655Z,20.200000000000003
2018-12-25T09:18:47.769Z,20.799999999999997
2018-12-25T09:20:47.850Z,20.200000000000003
2018-12-25T09:22:47.816Z,20.799999999999997
2018-12-25T09:24:47.920Z,20.799999999999997
2018-12-25T09:26:47.831Z,19.700000000000003
2018-12-25T09:28:47.978Z,19.700000000000003
2018-12-25T09:30:48.032Z,20.799999999999997
2018-12-25T09:32:48.112Z,20.799999999999997
2018-12-25T09:34:48.150Z,20.200000000000003
2018-12-25T09:36:48.201Z,20.200000000000003
2018-12-25T09:38:48.255Z,20.799999999999997
2018-12-25T09:40:48.297Z,20.200000000000003
2018-12-25T09:42:48.362Z,20.799999999999997
2018-12-25T09:44:48.418Z,20.799999999999997
2018-12-25T09:46:48.482Z,20.200000000000003
2018-12-25T09:48:48.597Z,20.200000000000003
2018-12-25T09:50:48.545Z,20.200000000000003
2018-12-25T09:52:48.646Z,19.700000000000003
2018-12-25T09:54:48.719Z,20.799999999999997
2018-12-25T09:56:48.798Z,20.799999999999997
2018-12-25T09:58:49.080Z,19.700000000000003
2018-12-25T10:00:48.925Z,20.799999999999997
2018-12-25T10:02:49.111Z,20.200000000000003
2018-12-25T10:04:49.121Z,20.200000000000003
2018-12-25T10:06:49.201Z,20.799999999999997
2018-12-25T10:08:49.386Z,20.799999999999997
2018-12-25T10:10:49.523Z,20.799999999999997
2018-12-25T10:12:49.620Z,20.200000000000003
2018-12-25T10:14:49.828Z,20.200000000000003
2018-12-25T10:16:49.997Z,20.200000000000003
2018-12-25T10:18:49.957Z,20.799999999999997
2018-12-25T10:20:50.069Z,20.200000000000003
2018-12-25T10:22:49.967Z,19.700000000000003
2018-12-25T10:24:51.311Z,20.799999999999997
2018-12-25T10:26:50.037Z,20.200000000000003
2018-12-25T10:28:50.104Z,20.200000000000003
2018-12-25T10:30:50.147Z,20.200000000000003
2018-12-25T10:32:50.287Z,19.700000000000003
2018-12-25T10:34:50.279Z,20.200000000000003
2018-12-25T10:36:50.355Z,20.799999999999997
2018-12-25T10:38:50.375Z,20.200000000000003
2018-12-25T10:40:50.433Z,19.700000000000003
2018-12-25T10:42:50.415Z,20.200000000000003
2018-12-25T10:44:50.538Z,20.200000000000003
2018-12-25T10:46:50.597Z,20.799999999999997
2018-12-25T10:48:50.732Z,19.700000000000003
2018-12-25T10:50:50.723Z,20.200000000000003
2018-12-25T10:52:50.881Z,20.200000000000003
2018-12-25T10:54:50.949Z,20.799999999999997
2018-12-25T10:56:51.016Z,20.200000000000003
2018-12-25T10:58:51.095Z,20.200000000000003
2018-12-25T11:00:51.202Z,20.200000000000003
2018-12-25T11:02:51.194Z,20.799999999999997
2018-12-25T11:04:51.339Z,20.799999999999997
2018-12-25T11:06:51.525Z,19.700000000000003
2018-12-25T11:08:52.055Z,19.700000000000003
2018-12-25T11:10:51.641Z,20.200000000000003
2018-12-25T11:12:51.757Z,19.700000000000003
2018-12-25T11:14:51.982Z,19.700000000000003
2018-12-25T11:16:51.852Z,20.799999999999997
2018-12-25T11:18:52.115Z,19.700000000000003
2018-12-25T11:20:52.142Z,19.700000000000003
2018-12-25T11:22:52.057Z,19.700000000000003
2018-12-25T11:24:52.120Z,20.200000000000003
2018-12-25T11:26:52.180Z,19.700000000000003
2018-12-25T11:28:52.222Z,20.799999999999997
2018-12-25T11:30:52.308Z,20.200000000000003
2018-12-25T11:32:52.338Z,19.700000000000003
2018-12-25T11:34:52.569Z,20.799999999999997
2018-12-25T11:36:52.441Z,20.200000000000003
2018-12-25T11:38:52.518Z,20.799999999999997
2018-12-25T11:40:52.621Z,19.700000000000003
2018-12-25T11:42:52.556Z,19.700000000000003
2018-12-25T11:44:52.681Z,19.700000000000003
2018-12-25T11:46:52.898Z,20.200000000000003
2018-12-25T11:48:52.789Z,20.200000000000003
2018-12-25T11:50:52.862Z,20.799999999999997
2018-12-25T11:52:53.056Z,20.799999999999997
2018-12-25T11:54:53.179Z,20.799999999999997
2018-12-25T11:56:53.219Z,20.799999999999997
2018-12-25T11:58:53.247Z,20.200000000000003
2018-12-25T12:00:53.464Z,20.200000000000003
2018-12-25T12:02:53.473Z,20.200000000000003
2018-12-25T12:04:53.427Z,20.200000000000003
2018-12-25T12:06:55.603Z,20.200000000000003
2018-12-25T12:08:53.731Z,19.700000000000003
2018-12-25T12:10:53.908Z,20.799999999999997
2018-12-25T12:12:53.947Z,20.200000000000003
2018-12-25T12:14:54.082Z,19.700000000000003
2018-12-25T12:16:54.175Z,20.799999999999997
2018-12-25T12:18:54.296Z,20.200000000000003
2018-12-25T12:20:54.422Z,20.799999999999997
2018-12-25T12:22:54.500Z,19.700000000000003
2018-12-25T12:24:54.549Z,20.200000000000003
2018-12-25T12:26:54.737Z,19.700000000000003
2018-12-25T12:28:54.925Z,20.200000000000003
2018-12-25T12:30:54.959Z,20.200000000000003
2018-12-25T12:32:54.908Z,19.700000000000003
2018-12-25T12:34:54.976Z,20.200000000000003
2018-12-25T12:36:55.001Z,19.700000000000003
2018-12-25T12:38:55.065Z,20.799999999999997
2018-12-25T12:40:55.119Z,19.700000000000003
2018-12-25T12:42:55.161Z,20.200000000000003
2018-12-25T12:44:55.245Z,20.799999999999997
2018-12-25T12:46:55.377Z,19.700000000000003
2018-12-25T12:48:55.283Z,20.799999999999997
2018-12-25T12:50:55.370Z,20.799999999999997
2018-12-25T12:52:55.396Z,20.200000000000003
2018-12-25T12:54:55.521Z,19.700000000000003
2018-12-25T12:56:55.423Z,20.200000000000003
2018-12-25T12:58:55.553Z,19.700000000000003
2018-12-25T13:00:55.705Z,20.799999999999997
2018-12-25T13:02:55.854Z,20.200000000000003
2018-12-25T13:04:55.889Z,19.700000000000003
2018-12-25T13:06:56.001Z,19.700000000000003
2018-12-25T13:08:58.093Z,20.799999999999997
2018-12-25T13:10:56.136Z,20.799999999999997
2018-12-25T13:12:56.180Z,20.799999999999997
2018-12-25T13:14:56.244Z,20.799999999999997
2018-12-25T13:16:56.234Z,20.799999999999997
2018-12-25T13:18:56.704Z,20.799999999999997
2018-12-25T13:20:56.618Z,20.799999999999997
2018-12-25T13:22:56.602Z,20.200000000000003
2018-12-25T13:24:56.770Z,20.799999999999997
2018-12-25T13:26:56.906Z,19.700000000000003
2018-12-25T13:28:56.995Z,20.200000000000003
2018-12-25T13:30:57.184Z,20.799999999999997
2018-12-25T13:32:57.207Z,19.700000000000003
2018-12-25T13:34:57.625Z,19.700000000000003
2018-12-25T13:36:57.412Z,20.200000000000003
2018-12-25T13:38:57.541Z,19.700000000000003
2018-12-25T13:40:57.598Z,20.799999999999997
2018-12-25T13:42:57.654Z,20.799999999999997
2018-12-25T13:44:57.725Z,19.700000000000003
2018-12-25T13:46:57.735Z,19.700000000000003
2018-12-25T13:48:57.861Z,19.700000000000003
2018-12-25T13:50:57.954Z,20.200000000000003
2018-12-25T13:53:02.699Z,20.200000000000003
2018-12-25T13:54:58.036Z,20.799999999999997
2018-12-25T13:56:58.104Z,19.700000000000003
2018-12-25T13:58:58.157Z,20.200000000000003
2018-12-25T14:00:58.243Z,20.799999999999997
2018-12-25T14:02:58.277Z,20.200000000000003
2018-12-25T14:04:58.325Z,20.799999999999997
2018-12-25T14:06:58.565Z,20.200000000000003
2018-12-25T14:08:58.462Z,20.799999999999997
2018-12-25T14:10:58.628Z,20.799999999999997
2018-12-25T14:12:58.577Z,20.799999999999997
2018-12-25T14:14:58.902Z,20.799999999999997
2018-12-25T14:16:58.730Z,20.200000000000003
2018-12-25T14:18:58.817Z,20.200000000000003
2018-12-25T14:20:58.882Z,20.799999999999997
2018-12-25T14:22:58.925Z,20.799999999999997
2018-12-25T14:24:59.134Z,20.200000000000003
2018-12-25T14:26:59.452Z,20.799999999999997
2018-12-25T14:28:59.428Z,20.799999999999997
2018-12-25T14:30:59.544Z,20.799999999999997
2018-12-25T14:32:59.786Z,20.799999999999997
2018-12-25T14:34:59.972Z,20.200000000000003
2018-12-25T14:36:59.874Z,20.799999999999997
2018-12-25T14:38:59.896Z,20.799999999999997
2018-12-25T14:41:00.142Z,20.200000000000003
2018-12-25T14:43:00.206Z,19.700000000000003
2018-12-25T14:45:00.282Z,19.700000000000003
2018-12-25T14:47:00.182Z,20.200000000000003
2018-12-25T14:49:00.256Z,20.200000000000003
2018-12-25T14:51:00.273Z,20.799999999999997
2018-12-25T14:53:00.273Z,19.700000000000003
2018-12-25T14:55:00.367Z,20.200000000000003
2018-12-25T14:57:00.407Z,20.200000000000003
2018-12-25T14:59:00.468Z,20.200000000000003
2018-12-25T15:01:00.538Z,20.799999999999997
2018-12-25T15:03:00.582Z,19.700000000000003
2018-12-25T15:05:00.642Z,20.799999999999997
2018-12-25T15:07:00.726Z,20.799999999999997
2018-12-25T15:09:00.660Z,20.200000000000003
2018-12-25T15:11:00.836Z,20.799999999999997
2018-12-25T15:13:00.944Z,20.200000000000003
2018-12-25T15:15:01.093Z,20.799999999999997
2018-12-25T15:17:01.027Z,20.799999999999997
2018-12-25T15:19:01.015Z,20.799999999999997
2018-12-25T15:21:01.312Z,20.799999999999997
2018-12-25T15:23:01.581Z,20.799999999999997
2018-12-25T15:25:01.492Z,20.799999999999997
2018-12-25T15:27:01.518Z,20.799999999999997
2018-12-25T15:29:01.715Z,20.799999999999997
2018-12-25T15:31:01.824Z,20.200000000000003
2018-12-25T15:33:01.919Z,20.799999999999997
2018-12-25T15:35:01.967Z,20.799999999999997
2018-12-25T15:37:02.785Z,20.799999999999997
2018-12-25T15:39:02.207Z,20.799999999999997
2018-12-25T15:41:02.024Z,20.799999999999997
2018-12-25T15:43:02.053Z,20.799999999999997
2018-12-25T15:45:02.116Z,20.799999999999997
2018-12-25T15:47:02.122Z,20.799999999999997
2018-12-25T15:49:02.125Z,20.799999999999997
2018-12-25T15:51:02.289Z,20.799999999999997
2018-12-25T15:53:02.318Z,20.799999999999997
2018-12-25T15:55:02.361Z,20.799999999999997
2018-12-25T15:57:02.572Z,20.799999999999997
2018-12-25T15:59:02.515Z,20.799999999999997
2018-12-25T16:01:02.553Z,20.799999999999997
2018-12-25T16:03:02.524Z,21.299999999999997
2018-12-25T16:05:02.877Z,20.799999999999997
2018-12-25T16:07:02.937Z,20.799999999999997
2018-12-25T16:09:02.908Z,20.799999999999997
2018-12-25T16:11:03.023Z,20.799999999999997
2018-12-25T16:13:03.115Z,20.799999999999997
2018-12-25T16:15:03.159Z,20.799999999999997
2018-12-25T16:17:03.197Z,20.799999999999997
2018-12-25T16:19:03.218Z,20.799999999999997
2018-12-25T16:21:03.338Z,21.299999999999997
2018-12-25T16:23:03.453Z,20.799999999999997
2018-12-25T16:25:03.506Z,20.799999999999997
2018-12-25T16:27:03.631Z,20.799999999999997
2018-12-25T16:29:03.623Z,20.799999999999997
2018-12-25T16:31:03.697Z,20.799999999999997
2018-12-25T16:33:03.783Z,20.799999999999997
2018-12-25T16:35:03.868Z,21.299999999999997
2018-12-25T16:37:03.957Z,21.299999999999997
2018-12-25T16:39:04.199Z,20.799999999999997
2018-12-25T16:41:04.364Z,21.9
2018-12-25T16:43:04.405Z,21.299999999999997
2018-12-25T16:45:04.446Z,20.799999999999997
2018-12-25T16:47:04.703Z,20.799999999999997
2018-12-25T16:49:04.917Z,21.9
2018-12-25T16:51:04.941Z,20.799999999999997
2018-12-25T16:53:04.798Z,20.799999999999997
2018-12-25T16:55:04.854Z,20.799999999999997
2018-12-25T16:57:04.885Z,20.799999999999997
2018-12-25T16:59:04.855Z,20.799999999999997
2018-12-25T17:01:05.013Z,21.9
2018-12-25T17:03:05.078Z,20.799999999999997
2018-12-25T17:05:05.006Z,21.299999999999997
2018-12-25T17:07:05.153Z,21.299999999999997
2018-12-25T17:09:05.134Z,20.799999999999997
2018-12-25T17:11:05.268Z,21.299999999999997
2018-12-25T17:13:05.346Z,21.299999999999997
2018-12-25T17:15:05.302Z,20.799999999999997
2018-12-25T17:17:05.430Z,21.299999999999997
2018-12-25T17:19:05.477Z,21.9
2018-12-25T17:21:05.514Z,21.9
2018-12-25T17:23:05.669Z,21.9
2018-12-25T17:25:05.622Z,21.9
2018-12-25T17:27:05.759Z,21.299999999999997
2018-12-25T17:29:05.928Z,21.9
2018-12-25T17:31:05.906Z,21.9
2018-12-25T17:33:05.978Z,21.299999999999997
2018-12-25T17:35:06.055Z,21.9
2018-12-25T17:37:06.117Z,21.9
2018-12-25T17:39:06.215Z,21.9
2018-12-25T17:41:06.245Z,21.9
2018-12-25T17:43:06.486Z,22.4
2018-12-25T17:45:06.534Z,21.9
2018-12-25T17:47:06.601Z,21.9
2018-12-25T17:49:06.796Z,21.9
2018-12-25T17:51:06.944Z,21.299999999999997
2018-12-25T17:53:07.365Z,21.9
2018-12-25T17:55:07.045Z,21.9
2018-12-25T17:57:07.106Z,21.9
2018-12-25T17:59:07.152Z,21.9
2018-12-25T18:01:07.147Z,21.299999999999997
2018-12-25T18:03:07.271Z,21.9
2018-12-25T18:05:11.716Z,21.9
2018-12-25T18:07:07.391Z,21.299999999999997
2018-12-25T18:09:07.432Z,20.799999999999997
2018-12-25T18:11:07.499Z,21.299999999999997
2018-12-25T18:13:07.725Z,21.9
2018-12-25T18:15:07.634Z,21.9
2018-12-25T18:17:07.720Z,21.9
2018-12-25T18:19:07.727Z,21.9
2018-12-25T18:21:07.768Z,21.299999999999997
2018-12-25T18:23:07.726Z,21.299999999999997
2018-12-25T18:25:07.902Z,20.799999999999997
2018-12-25T18:27:07.927Z,21.299999999999997